Terminal Aerodrome Forecast
Issued by NWS

Home | Current Version | Previous Version | Text Only | Print | Product List | Glossary On
Versions: 1 2 3 4 5 6 7 8 9 10 11 12 13 14 15 16 17 18 19 20 21 22 23 24 25 26 27 28 29 30 31 32 33 34 35 36 37 38
000
FTUS44 KHGX 281140
TAFIAH
TAF
KIAH 281140Z 2812/2918 14004KT P6SM SCT150 SCT250
     FM281500 17006KT P6SM SCT030
     FM282100 15011KT P6SM VCTS BKN035CB
     FM290000 13007KT P6SM FEW015
     FM290900 12003KT P6SM MIFG BKN015
      TEMPO 2910/2913 00000KT 5SM BR OVC008
     FM291500 12005KT P6SM SCT020 SCT150=

USA.gov is the U.S. government's official web portal to all federal, state and local government web resources and services.